Time;durP1;ratioP1;P1;durP2;ratioP2;P2;SDS_P1;SDS_P2;PMS_P1;PMS_P2;Temp;Humidity;BMP_temperature;BMP_pressure;BME280_temperature;BME280_humidity;BME280_pressure;Samples;Min_cycle;Max_cycle;Signal;HPM_P1;HPM_P2
2022/11/08 00:02:01;;;;;;;4.88;1.90;;;;;;;10.97;94.50;100907.91;4977826;28;20034;-84
2022/11/08 00:04:27;;;;;;;4.57;1.70;;;;;;;10.97;94.39;100905.31;5032391;28;20033;-85
2022/11/08 00:15:05;;;;;;;1.85;1.63;;;;;;;10.97;93.68;100902.72;5032414;28;20069;-84
2022/11/08 00:17:31;;;;;;;2.60;1.48;;;;;;;10.96;93.89;100906.19;5033764;28;20026;-84
2022/11/08 00:19:56;;;;;;;2.57;1.40;;;;;;;10.96;93.18;100902.75;5035964;28;20024;-84
2022/11/08 00:22:22;;;;;;;2.40;1.40;;;;;;;10.95;92.89;100901.88;5035785;28;20025;-84
2022/11/08 00:24:47;;;;;;;3.27;1.50;;;;;;;10.96;93.83;100898.41;5034855;28;20410;-84
2022/11/08 00:27:16;;;;;;;1.40;1.30;;;;;;;10.94;93.60;100894.13;5036206;28;20033;-84
2022/11/08 00:29:41;;;;;;;2.83;1.40;;;;;;;10.93;93.62;100903.63;5036014;28;20156;-84
2022/11/08 00:32:12;;;;;;;1.60;1.20;;;;;;;10.92;93.15;100901.06;5034743;28;20113;-84
2022/11/08 00:34:37;;;;;;;1.67;1.20;;;;;;;10.89;93.46;100893.31;5035531;28;20040;-84
2022/11/08 00:37:03;;;;;;;1.37;1.10;;;;;;;10.86;93.39;100896.81;5035011;28;20025;-84
2022/11/08 00:39:29;;;;;;;4.83;1.60;;;;;;;10.85;93.68;100894.25;5035919;28;20030;-84
2022/11/08 00:41:54;;;;;;;2.40;1.80;;;;;;;10.81;94.32;100888.25;5035536;28;20311;-84
2022/11/08 00:44:19;;;;;;;2.90;1.90;;;;;;;10.79;94.03;100885.69;5034606;28;20033;-84
2022/11/08 00:46:45;;;;;;;2.50;1.60;;;;;;;10.77;94.97;100884.00;5035676;28;20026;-84
2022/11/08 00:49:11;;;;;;;2.87;1.70;;;;;;;10.75;94.31;100888.34;5035367;28;20024;-84
2022/11/08 00:51:36;;;;;;;2.27;1.40;;;;;;;10.72;94.11;100885.78;5034737;28;20533;-84
2022/11/08 00:54:06;;;;;;;3.43;1.70;;;;;;;10.70;94.28;100883.22;5035071;28;20382;-84
2022/11/08 00:56:32;;;;;;;1.50;1.40;;;;;;;10.66;94.75;100882.41;5048042;28;20049;-85
2022/11/08 00:58:58;;;;;;;1.43;1.33;;;;;;;10.63;95.08;100876.44;5054712;28;20397;-84
2022/11/08 01:01:23;;;;;;;2.25;1.60;;;;;;;10.62;94.51;100880.75;5054942;28;20063;-84
2022/11/08 01:03:49;;;;;;;1.73;1.63;;;;;;;10.62;94.51;100870.34;5055274;28;20432;-84
2022/11/08 01:06:16;;;;;;;2.33;1.30;;;;;;;10.62;93.98;100872.13;5054277;28;20468;-84
2022/11/08 01:08:42;;;;;;;4.07;1.80;;;;;;;10.59;94.88;100872.16;5054775;28;20032;-84
2022/11/08 01:11:13;;;;;;;2.63;1.47;;;;;;;10.55;95.06;100868.75;5054986;28;20021;-84
2022/11/08 01:13:39;;;;;;;2.88;1.63;;;;;;;10.53;94.58;100872.25;5054491;28;20051;-84
2022/11/08 01:16:10;;;;;;;3.15;1.45;;;;;;;10.51;94.23;100869.66;5054738;28;20025;-84
2022/11/08 01:18:36;;;;;;;2.38;1.27;;;;;;;10.48;95.08;100872.28;5055058;28;20029;-84
2022/11/08 01:21:03;;;;;;;4.03;1.77;;;;;;;10.45;95.87;100867.16;5042544;28;20383;-84
2022/11/08 01:23:28;;;;;;;2.90;1.95;;;;;;;10.44;95.31;100865.44;5034535;28;20033;-84
2022/11/08 01:25:54;;;;;;;1.93;1.40;;;;;;;10.41;95.00;100861.16;5034584;28;20043;-84
2022/11/08 01:28:19;;;;;;;1.77;1.53;;;;;;;10.40;94.75;100863.78;5033226;28;20025;-84
2022/11/08 01:30:45;;;;;;;2.43;1.50;;;;;;;10.39;95.14;100859.47;5034876;28;20033;-84
2022/11/08 01:33:10;;;;;;;2.37;1.40;;;;;;;10.37;95.71;100854.28;5088624;22;20487;-84
2022/11/08 01:35:36;;;;;;;2.97;1.60;;;;;;;10.35;95.03;100856.03;5053754;28;20078;-84
2022/11/08 01:38:03;;;;;;;4.27;2.00;;;;;;;10.32;95.82;100851.75;5054154;28;20021;-84
2022/11/08 01:40:30;;;;;;;3.47;2.08;;;;;;;10.31;95.84;100844.84;5053927;28;20036;-84
2022/11/08 01:42:55;;;;;;;2.45;1.90;;;;;;;10.30;95.30;100839.69;5054435;28;20052;-84
2022/11/08 01:45:57;;;;;;;3.50;1.90;;;;;;;10.30;96.13;100839.69;5054117;28;20389;-84
2022/11/08 01:48:25;;;;;;;3.95;1.90;;;;;;;10.26;95.89;100836.25;5053414;28;20040;-84
2022/11/08 01:50:51;;;;;;;4.85;1.85;;;;;;;10.31;95.61;100844.84;5053995;28;20032;-84
2022/11/08 01:53:16;;;;;;;5.60;2.00;;;;;;;10.25;96.14;100818.13;5053870;28;20530;-83
2022/11/08 01:55:42;;;;;;;5.93;2.20;;;;;;;10.26;96.05;100819.84;5053327;28;20083;-84
2022/11/08 01:58:14;;;;;;;3.43;2.00;;;;;;;10.27;96.24;100825.00;5054269;28;20021;-84
2022/11/08 02:00:39;;;;;;;3.35;2.10;;;;;;;10.27;96.38;100812.03;5054115;28;20108;-83
2022/11/08 02:03:09;;;;;;;3.47;1.90;;;;;;;10.27;96.68;100806.84;5053500;28;20036;-83
2022/11/08 02:05:34;;;;;;;2.63;1.90;;;;;;;10.26;96.29;100807.72;5053881;28;20462;-83
2022/11/08 02:08:09;;;;;;;5.87;1.93;;;;;;;10.27;96.18;100806.84;5054177;28;20029;-84
2022/11/08 02:10:37;;;;;;;3.03;2.00;;;;;;;10.25;97.35;100800.81;5053128;28;20421;-84
2022/11/08 02:13:06;;;;;;;4.05;1.88;;;;;;;10.25;97.53;100789.59;5053261;28;20033;-83
2022/11/08 02:15:31;;;;;;;3.78;1.83;;;;;;;10.24;97.48;100786.16;5053317;28;20032;-83
2022/11/08 02:17:56;;;;;;;3.27;1.57;;;;;;;10.26;96.38;100789.56;5053785;28;20025;-83
2022/11/08 02:20:22;;;;;;;3.77;1.97;;;;;;;10.27;97.11;100786.09;5053407;28;20056;-84
2022/11/08 02:22:59;;;;;;;3.77;1.87;;;;;;;10.29;97.35;100784.34;5052623;28;20140;-84
2022/11/08 02:25:25;;;;;;;4.97;1.90;;;;;;;10.30;96.70;100785.22;5053259;28;20037;-84
2022/11/08 02:27:50;;;;;;;2.38;1.88;;;;;;;10.28;96.99;100780.03;5053376;28;20025;-84
2022/11/08 02:30:15;;;;;;;3.10;2.10;;;;;;;10.29;96.96;100776.56;5052695;28;20029;-83
2022/11/08 02:32:41;;;;;;;2.70;1.87;;;;;;;10.30;97.23;100770.50;5053359;28;20056;-84
2022/11/08 02:35:15;;;;;;;2.97;1.87;;;;;;;10.30;97.35;100767.06;5053359;28;20025;-84
2022/11/08 02:37:40;;;;;;;3.63;1.60;;;;;;;10.31;96.28;100766.13;5052865;28;20021;-84
2022/11/08 02:40:06;;;;;;;2.47;1.77;;;;;;;10.30;96.94;100757.53;5052060;28;20031;-83
2022/11/08 02:42:32;;;;;;;4.32;1.70;;;;;;;10.32;96.59;100762.66;5052907;28;20075;-83
2022/11/08 02:44:57;;;;;;;1.90;1.63;;;;;;;10.33;96.10;100760.06;5052547;28;20033;-83
2022/11/08 02:47:23;;;;;;;2.33;1.83;;;;;;;10.32;96.53;100753.16;5053184;28;20029;-83
2022/11/08 02:49:48;;;;;;;3.07;1.70;;;;;;;10.32;96.91;100744.50;5052858;28;20491;-83
2022/11/08 02:52:13;;;;;;;4.90;1.70;;;;;;;10.30;96.63;100749.75;5052187;28;20115;-83
2022/11/08 02:54:39;;;;;;;1.97;1.57;;;;;;;10.27;96.50;100736.81;5053063;28;20029;-83
2022/11/08 02:57:04;;;;;;;1.70;1.60;;;;;;;10.32;95.88;100731.53;5052751;28;20029;-83
2022/11/08 02:59:29;;;;;;;3.97;2.00;;;;;;;10.24;96.19;100736.00;5052192;28;20031;-83
2022/11/08 03:01:54;;;;;;;1.70;1.43;;;;;;;10.23;95.96;100729.09;5053143;28;20024;-83
2022/11/08 03:04:20;;;;;;;3.60;1.87;;;;;;;10.18;97.03;100717.09;5052465;28;20064;-83
2022/11/08 03:06:45;;;;;;;1.87;1.70;;;;;;;10.19;96.21;100723.09;5052328;28;20021;-83
2022/11/08 03:09:11;;;;;;;1.60;1.50;;;;;;;10.18;95.94;100718.81;5052015;28;20067;-83
2022/11/08 03:11:36;;;;;;;1.83;1.50;;;;;;;10.20;95.60;100712.69;5052788;28;20024;-83
2022/11/08 03:14:01;;;;;;;2.23;1.43;;;;;;;10.13;96.63;100708.50;5051885;28;20036;-84
2022/11/08 03:16:27;;;;;;;1.70;1.60;;;;;;;10.10;96.50;100700.75;5052789;28;20104;-83
2022/11/08 03:18:52;;;;;;;3.60;2.00;;;;;;;10.12;96.05;100700.75;5052393;28;20431;-83
2022/11/08 03:21:18;;;;;;;3.50;1.90;;;;;;;10.05;96.56;100698.25;5052322;28;20536;-83
2022/11/08 03:23:43;;;;;;;3.03;1.90;;;;;;;10.03;96.44;100689.63;5052467;28;20480;-84
2022/11/08 03:26:08;;;;;;;2.50;1.87;;;;;;;10.02;95.94;100687.91;5051216;28;20040;-83
2022/11/08 03:28:33;;;;;;;2.70;1.77;;;;;;;10.01;95.78;100688.81;5052393;28;20029;-83
2022/11/08 03:30:59;;;;;;;3.43;1.70;;;;;;;10.01;96.10;100685.34;5052620;28;20029;-84
2022/11/08 03:33:24;;;;;;;2.60;1.70;;;;;;;9.98;96.22;100681.09;5051432;28;20103;-83
2022/11/08 03:35:51;;;;;;;2.57;1.70;;;;;;;9.95;96.20;100681.13;5052825;28;20027;-84
2022/11/08 03:38:16;;;;;;;3.28;1.80;;;;;;;9.92;96.24;100670.78;5052380;28;20036;-83
2022/11/08 03:40:42;;;;;;;3.13;1.90;;;;;;;9.91;96.43;100663.88;5051907;28;20025;-83
2022/11/08 03:43:07;;;;;;;5.17;1.90;;;;;;;9.88;96.24;100657.03;5052288;28;20021;-83
2022/11/08 03:45:32;;;;;;;4.17;2.17;;;;;;;9.87;96.48;100655.31;5052656;28;20037;-84
2022/11/08 03:47:58;;;;;;;4.37;2.00;;;;;;;9.89;96.36;100643.19;5051895;28;20052;-84
2022/11/08 03:50:23;;;;;;;3.77;1.80;;;;;;;9.87;96.34;100628.53;5052623;28;20025;-84
2022/11/08 03:52:51;;;;;;;4.37;1.90;;;;;;;9.88;96.01;100635.44;5112380;22;20401;-84
2022/11/08 03:55:18;;;;;;;5.95;2.20;;;;;;;9.89;96.30;100632.81;5063764;28;20059;-83
2022/11/08 03:57:46;;;;;;;3.90;1.90;;;;;;;9.89;96.15;100624.19;5076458;28;20128;-84
2022/11/08 04:00:13;;;;;;;4.45;1.90;;;;;;;9.88;96.50;100622.47;5075955;28;20033;-85
2022/11/08 04:02:39;;;;;;;3.15;1.90;;;;;;;9.87;96.14;100624.19;5075313;28;20030;-84
2022/11/08 04:05:05;;;;;;;3.03;1.90;;;;;;;9.85;96.73;100617.34;5076123;28;20111;-84
2022/11/08 04:07:30;;;;;;;2.88;1.63;;;;;;;9.85;96.29;100612.16;5076483;28;20016;-83
2022/11/08 04:09:56;;;;;;;4.20;1.80;;;;;;;9.81;96.54;100611.34;5075663;28;20405;-84
2022/11/08 04:15:14;;;;;;;6.43;2.00;;;;;;;9.82;95.73;100602.69;5075551;28;20475;-84
2022/11/08 04:23:12;;;;;;;5.25;2.40;;;;;;;9.83;96.38;100601.81;5055204;28;20397;-84
2022/11/08 04:25:38;;;;;;;4.93;2.30;;;;;;;9.75;96.29;100593.28;5056009;28;20061;-84
2022/11/08 04:28:03;;;;;;;3.83;2.00;;;;;;;9.74;96.13;100588.97;5055490;28;20276;-84
2022/11/08 04:30:28;;;;;;;2.33;1.70;;;;;;;9.72;96.26;100585.59;5054851;28;20017;-84
2022/11/08 04:32:54;;;;;;;3.50;1.80;;;;;;;9.69;96.31;100586.47;5055761;28;20531;-84
2022/11/08 04:35:19;;;;;;;3.43;1.87;;;;;;;9.69;95.96;100583.03;5055555;28;20036;-84
2022/11/08 04:37:44;;;;;;;4.00;1.80;;;;;;;9.79;95.77;100576.81;5054933;28;20478;-85
2022/11/08 04:40:10;;;;;;;4.33;2.43;;;;;;;9.69;95.70;100577.84;5055476;28;20021;-84
2022/11/08 04:42:35;;;;;;;4.10;2.00;;;;;;;9.67;95.36;100575.28;5055775;28;20025;-85
2022/11/08 04:45:01;;;;;;;4.90;2.10;;;;;;;9.68;95.42;100576.97;5055055;28;20028;-84
2022/11/08 04:47:27;;;;;;;3.47;2.10;;;;;;;9.67;95.58;100579.59;5055120;28;20576;-84
2022/11/08 04:49:53;;;;;;;2.45;1.98;;;;;;;9.68;95.26;100578.72;5062429;28;20025;-84
2022/11/08 04:52:18;;;;;;;1.92;1.80;;;;;;;9.65;95.10;100556.31;5074567;28;20501;-84
2022/11/08 04:54:44;;;;;;;4.57;2.10;;;;;;;9.69;95.03;100565.75;5075545;28;20147;-84
2022/11/08 04:57:10;;;;;;;3.63;2.07;;;;;;;9.74;94.66;100550.13;5074983;28;20032;-85
2022/11/08 04:59:35;;;;;;;4.27;2.10;;;;;;;9.65;94.74;100545.09;5074669;28;20021;-84
2022/11/08 05:02:00;;;;;;;3.90;2.10;;;;;;;9.75;94.59;100544.03;5075066;28;20024;-85
2022/11/08 05:04:26;;;;;;;5.50;2.37;;;;;;;9.65;94.41;100537.31;5072998;28;20028;-83
2022/11/08 05:06:51;;;;;;;6.50;2.00;;;;;;;9.62;94.48;100546.00;5075267;28;20420;-84
2022/11/08 05:09:16;;;;;;;3.77;2.07;;;;;;;9.65;94.45;100534.72;5074824;28;20024;-83
2022/11/08 05:11:42;;;;;;;3.30;1.77;;;;;;;9.63;94.30;100539.94;5074395;28;20104;-83
2022/11/08 05:14:07;;;;;;;2.47;1.90;;;;;;;9.61;93.91;100533.91;5074245;28;20416;-84
2022/11/08 05:16:32;;;;;;;2.97;1.90;;;;;;;9.61;93.83;100523.56;5074907;28;20377;-83
2022/11/08 05:18:58;;;;;;;3.23;1.67;;;;;;;9.63;94.22;100529.56;5073891;28;20033;-83
2022/11/08 05:24:10;;;;;;;3.38;2.13;;;;;;;9.62;93.55;100537.38;5074483;28;20090;-84
2022/11/08 05:26:37;;;;;;;3.75;2.00;;;;;;;9.58;93.32;100531.38;5074010;28;20028;-84
2022/11/08 05:29:03;;;;;;;;;;;;;;;9.58;93.33;100528.78;5074970;28;20133;-83
2022/11/08 05:31:28;;;;;;;1.90;1.70;;;;;;;9.57;93.38;100522.75;5074909;28;19995;-84
2022/11/08 05:33:54;;;;;;;2.67;1.77;;;;;;;9.59;93.07;100514.94;5074218;28;20067;-84
2022/11/08 05:36:20;;;;;;;2.60;1.77;;;;;;;9.56;92.97;100510.69;5074213;28;20024;-83
2022/11/08 05:38:45;;;;;;;2.08;1.70;;;;;;;9.58;93.03;100519.28;5074518;28;20036;-83
2022/11/08 05:41:16;;;;;;;2.07;1.70;;;;;;;9.62;92.95;100516.66;5073516;28;20027;-84
2022/11/08 05:43:44;;;;;;;2.75;1.60;;;;;;;9.58;92.74;100514.09;5074418;28;20043;-83
2022/11/08 05:46:09;;;;;;;1.85;1.58;;;;;;;9.60;92.95;100511.47;5054050;28;20017;-83
2022/11/08 05:48:35;;;;;;;1.50;1.40;;;;;;;9.59;92.58;100509.75;5053967;28;20017;-83
2022/11/08 05:51:00;;;;;;;2.67;1.40;;;;;;;9.59;92.47;100512.34;5053992;28;20078;-83
2022/11/08 05:53:26;;;;;;;1.87;1.63;;;;;;;9.57;92.19;100511.53;5053866;28;20135;-83
2022/11/08 05:55:57;;;;;;;1.60;1.50;;;;;;;9.57;92.56;100511.53;5053528;28;20074;-84
2022/11/08 05:58:22;;;;;;;1.83;1.58;;;;;;;9.55;92.61;100513.31;5055001;28;20396;-84
2022/11/08 06:00:47;;;;;;;1.50;1.40;;;;;;;9.53;92.53;100507.28;5053638;28;20103;-83
2022/11/08 06:03:13;;;;;;;2.00;1.52;;;;;;;9.50;92.38;100507.34;5053859;28;20025;-83
2022/11/08 06:05:38;;;;;;;3.63;1.60;;;;;;;9.47;92.21;100508.25;5053886;28;20401;-83
2022/11/08 06:08:03;;;;;;;1.60;1.50;;;;;;;9.49;92.50;100500.44;5052881;28;20028;-84
2022/11/08 06:10:28;;;;;;;2.43;1.50;;;;;;;9.49;92.64;100503.03;5053735;28;20032;-83
2022/11/08 06:12:58;;;;;;;2.70;1.60;;;;;;;9.49;92.10;100490.06;5053942;28;20029;-83
2022/11/08 06:15:23;;;;;;;3.08;1.90;;;;;;;9.49;92.29;100497.84;5053968;28;20028;-83
2022/11/08 06:17:49;;;;;;;2.77;1.80;;;;;;;9.48;91.94;100490.94;5053607;28;20075;-83
2022/11/08 06:20:14;;;;;;;1.92;1.83;;;;;;;9.48;92.09;100498.72;5053674;28;20031;-83
2022/11/08 06:22:39;;;;;;;2.57;1.80;;;;;;;9.48;92.04;100501.31;5052782;28;20075;-83
2022/11/08 06:25:05;;;;;;;3.30;1.90;;;;;;;9.46;91.90;100501.34;5054181;28;20032;-83
2022/11/08 06:27:30;;;;;;;1.97;1.77;;;;;;;9.43;92.08;100499.66;5053373;28;20051;-83
2022/11/08 06:29:56;;;;;;;3.63;1.73;;;;;;;9.41;92.00;100498.84;5053221;28;20029;-83
2022/11/08 06:32:21;;;;;;;1.77;1.60;;;;;;;9.40;91.89;100504.06;5053394;28;20513;-83
2022/11/08 06:34:47;;;;;;;5.10;2.00;;;;;;;9.37;91.91;100501.50;5053487;28;20106;-83
2022/11/08 06:37:14;;;;;;;3.35;1.90;;;;;;;9.42;91.91;100499.69;5052738;28;20028;-84
2022/11/08 06:39:40;;;;;;;4.15;2.00;;;;;;;9.38;91.72;100501.47;5053666;28;20032;-84
2022/11/08 06:42:05;;;;;;;2.88;1.90;;;;;;;9.39;91.58;100505.78;5053113;28;20021;-84
2022/11/08 06:44:30;;;;;;;3.57;1.90;;;;;;;9.39;91.80;100494.56;5068841;28;20404;-81
2022/11/08 06:46:56;;;;;;;2.57;1.80;;;;;;;9.39;91.71;100512.69;5073192;28;20032;-82
2022/11/08 06:49:22;;;;;;;2.83;1.83;;;;;;;9.41;91.71;100498.84;5073049;28;20021;-84
2022/11/08 06:51:48;;;;;;;3.33;1.80;;;;;;;9.38;91.75;100498.88;5072192;28;20041;-82
2022/11/08 06:54:14;;;;;;;3.27;2.00;;;;;;;9.38;91.78;100498.03;5073056;28;20020;-82
2022/11/08 06:56:39;;;;;;;2.67;1.80;;;;;;;9.37;91.67;100498.91;5071068;28;20020;-82
2022/11/08 06:59:04;;;;;;;2.77;1.90;;;;;;;9.36;91.56;100498.03;5072278;28;20524;-83
2022/11/08 07:01:29;;;;;;;3.33;1.97;;;;;;;9.36;91.54;100504.97;5072935;28;20024;-82
2022/11/08 07:03:55;;;;;;;4.10;2.27;;;;;;;9.34;91.51;100501.53;5071969;28;20204;-82
2022/11/08 07:06:20;;;;;;;3.35;1.85;;;;;;;9.37;91.31;100501.50;5072774;28;20395;-82
2022/11/08 07:08:45;;;;;;;3.00;1.80;;;;;;;9.37;91.21;100506.69;5072833;28;20369;-82
2022/11/08 07:11:11;;;;;;;3.77;1.90;;;;;;;9.37;91.00;100515.28;5071687;28;20535;-83
2022/11/08 07:13:36;;;;;;;2.17;1.80;;;;;;;9.40;91.25;100517.00;5071180;28;20119;-84
2022/11/08 07:16:01;;;;;;;2.60;1.87;;;;;;;9.39;91.18;100521.31;5073073;28;20108;-83
2022/11/08 07:18:27;;;;;;;2.20;1.60;;;;;;;9.40;91.41;100512.66;5072301;28;20025;-82
2022/11/08 07:20:57;;;;;;;2.87;1.70;;;;;;;9.45;91.20;100522.94;5072693;28;20025;-82
2022/11/08 07:23:22;;;;;;;1.75;1.63;;;;;;;9.47;91.31;100512.56;5072536;28;20369;-83
2022/11/08 07:25:48;;;;;;;3.33;2.07;;;;;;;9.50;91.25;100512.50;5072140;28;20029;-82
2022/11/08 07:28:16;;;;;;;2.80;1.80;;;;;;;9.52;90.77;100505.56;5072427;28;20074;-82
2022/11/08 07:30:41;;;;;;;2.70;1.67;;;;;;;9.53;90.65;100502.09;5072961;28;20058;-83
2022/11/08 07:33:07;;;;;;;1.93;1.70;;;;;;;9.56;90.78;100502.06;5071978;28;20020;-82
2022/11/08 07:35:32;;;;;;;3.30;1.90;;;;;;;9.57;90.79;100501.16;5072845;28;20021;-82
2022/11/08 07:37:57;;;;;;;3.03;1.90;;;;;;;9.60;91.02;100502.88;5070778;28;20035;-85
2022/11/08 07:40:23;;;;;;;2.63;1.87;;;;;;;9.61;90.74;100505.41;5071720;28;20066;-85
2022/11/08 07:42:49;;;;;;;2.23;1.77;;;;;;;9.65;90.64;100506.22;5069592;28;20086;-84
2022/11/08 07:45:26;;;;;;;1.90;1.73;;;;;;;9.66;90.54;100502.75;5061261;28;20043;-83
2022/11/08 07:48:04;;;;;;;2.30;1.85;;;;;;;9.69;90.56;100495.78;5071627;28;20103;-89
2022/11/08 07:50:30;;;;;;;2.38;1.73;;;;;;;9.71;90.60;100496.59;5072583;28;20032;-83
2022/11/08 07:52:56;;;;;;;4.10;1.80;;;;;;;9.74;90.74;100493.97;5072368;28;20433;-84
2022/11/08 07:55:21;;;;;;;3.70;2.00;;;;;;;9.78;90.32;100488.75;5071675;28;20035;-83
2022/11/08 07:57:47;;;;;;;4.45;1.80;;;;;;;9.81;90.14;100488.66;5072509;28;20529;-83
2022/11/08 08:00:13;;;;;;;2.80;2.00;;;;;;;9.85;90.43;100488.56;5069585;28;20107;-82
2022/11/08 08:02:38;;;;;;;2.00;1.50;;;;;;;9.88;90.46;100490.28;5072408;28;20086;-82
2022/11/08 08:05:03;;;;;;;2.37;1.83;;;;;;;9.91;89.48;100489.38;5071624;28;20484;-83
2022/11/08 08:07:29;;;;;;;3.63;2.10;;;;;;;9.95;89.38;100491.88;5071922;28;20778;-82
2022/11/08 08:09:54;;;;;;;4.47;2.17;;;;;;;10.01;88.77;100494.38;5072283;28;20047;-83
2022/11/08 08:12:19;;;;;;;3.70;2.27;;;;;;;10.07;88.97;100493.41;5070860;28;20017;-82
2022/11/08 08:14:45;;;;;;;4.23;2.17;;;;;;;10.13;88.56;100498.44;5068050;28;20039;-84
2022/11/08 08:17:10;;;;;;;4.70;2.10;;;;;;;10.19;88.17;100492.28;5071191;28;20082;-82
2022/11/08 08:19:35;;;;;;;4.30;1.90;;;;;;;10.24;88.29;100493.06;5071728;28;20031;-83
2022/11/08 08:22:00;;;;;;;4.30;1.97;;;;;;;10.32;88.23;100493.78;5071096;28;20381;-82
2022/11/08 08:24:26;;;;;;;2.37;1.70;;;;;;;10.41;88.13;100502.28;5071370;28;20040;-82
2022/11/08 08:26:51;;;;;;;2.77;1.80;;;;;;;10.46;87.14;100505.66;5071822;28;20108;-82
2022/11/08 08:29:17;;;;;;;3.43;1.83;;;;;;;10.53;86.94;100504.63;5071002;28;20461;-82
2022/11/08 08:31:42;;;;;;;2.63;2.00;;;;;;;10.59;86.37;100506.25;5070326;28;20094;-82
2022/11/08 08:34:07;;;;;;;2.43;1.90;;;;;;;10.69;86.11;100493.94;5071656;28;20029;-82
2022/11/08 08:36:32;;;;;;;2.87;2.00;;;;;;;10.78;85.17;100523.13;5071230;28;20031;-83
2022/11/08 08:38:58;;;;;;;3.57;1.93;;;;;;;10.84;84.18;100523.91;5073254;28;20495;-82
2022/11/08 08:41:23;;;;;;;2.80;1.80;;;;;;;10.91;84.42;100523.75;5075305;28;20031;-82
2022/11/08 08:43:48;;;;;;;2.23;1.80;;;;;;;11.00;84.67;100522.66;5073192;28;20119;-82
2022/11/08 08:46:13;;;;;;;2.63;1.83;;;;;;;11.09;84.03;100521.59;5075205;28;20024;-82
2022/11/08 08:48:39;;;;;;;2.53;1.70;;;;;;;11.18;84.03;100517.94;5075494;28;20055;-83
2022/11/08 08:51:04;;;;;;;4.03;1.90;;;;;;;11.29;83.80;100518.56;5074434;28;20081;-82
2022/11/08 08:53:30;;;;;;;3.07;1.80;;;;;;;11.36;83.29;100509.72;5075264;28;20535;-83
2022/11/08 08:55:55;;;;;;;2.10;1.90;;;;;;;11.42;83.61;100504.38;5075641;28;20035;-83
2022/11/08 08:58:21;;;;;;;3.37;1.70;;;;;;;11.48;83.27;100511.19;5074139;28;20253;-83
2022/11/08 09:00:56;;;;;;;4.23;1.80;;;;;;;11.52;81.69;100510.19;5075366;28;20031;-83
2022/11/08 09:03:21;;;;;;;3.25;1.75;;;;;;;11.58;82.26;100506.59;5075017;28;20111;-82
2022/11/08 09:05:59;;;;;;;2.50;1.80;;;;;;;11.63;81.21;100499.53;5074766;28;20484;-83
2022/11/08 09:08:25;;;;;;;3.45;1.95;;;;;;;11.69;82.59;100495.94;5062801;28;20036;-83
2022/11/08 09:10:55;;;;;;;4.13;1.93;;;;;;;11.72;80.78;100485.44;5054496;28;20021;-82
2022/11/08 09:13:20;;;;;;;1.95;1.85;;;;;;;11.77;82.75;100482.72;5054750;28;20492;-82
2022/11/08 09:15:46;;;;;;;3.67;2.03;;;;;;;11.83;81.14;100483.41;5055079;28;20056;-82
2022/11/08 09:18:11;;;;;;;3.73;2.10;;;;;;;11.89;80.93;100482.41;5053647;28;20116;-82
2022/11/08 09:20:37;;;;;;;3.33;1.90;;;;;;;11.94;80.94;100496.16;5054808;28;20057;-82
2022/11/08 09:23:03;;;;;;;3.03;1.80;;;;;;;12.00;81.73;100508.16;5054392;28;20020;-83
2022/11/08 09:25:28;;;;;;;2.43;1.90;;;;;;;12.02;80.57;100494.22;5053940;28;20032;-83
2022/11/08 09:27:54;;;;;;;2.20;2.00;;;;;;;12.07;80.54;100485.44;5054828;28;20032;-83
2022/11/08 09:30:19;;;;;;;3.47;1.97;;;;;;;12.12;80.27;100473.16;5054203;28;20031;-82
2022/11/08 09:32:44;;;;;;;1.70;1.60;;;;;;;12.17;81.24;100481.69;5034122;28;20025;-83
2022/11/08 09:35:09;;;;;;;4.73;2.10;;;;;;;12.18;78.65;100478.19;5034390;28;20025;-82
2022/11/08 09:37:35;;;;;;;2.87;1.80;;;;;;;12.22;80.54;100478.97;5039632;28;20634;-83
2022/11/08 09:40:00;;;;;;;3.20;1.87;;;;;;;12.24;80.79;100483.22;5053959;28;20029;-83
2022/11/08 09:42:44;;;;;;;2.17;1.70;;;;;;;12.24;80.35;100488.44;5054279;28;20029;-83
2022/11/08 09:45:35;;;;;;;3.50;1.88;;;;;;;12.30;79.16;100482.19;5053875;28;20037;-83
2022/11/08 09:48:05;;;;;;;4.25;1.80;;;;;;;12.35;79.76;100482.94;5054064;28;20033;-82
2022/11/08 09:50:40;;;;;;;2.45;1.90;;;;;;;12.43;78.67;100477.50;5053904;28;20021;-82
2022/11/08 09:53:08;;;;;;;2.55;1.95;;;;;;;12.52;79.91;100485.06;5052827;28;20041;-83
2022/11/08 09:55:42;;;;;;;3.13;2.10;;;;;;;12.61;80.14;100494.34;5054156;28;20079;-83
2022/11/08 09:58:25;;;;;;;3.97;2.10;;;;;;;12.69;77.77;100510.59;5054134;28;20033;-82
2022/11/08 10:00:52;;;;;;;3.30;2.00;;;;;;;12.74;75.93;100507.84;5053883;28;20106;-82
2022/11/08 10:03:18;;;;;;;2.40;1.88;;;;;;;12.80;78.59;100513.72;5054630;28;20040;-83
2022/11/08 10:06:09;;;;;;;3.78;2.10;;;;;;;12.91;78.18;100497.75;5054081;28;20021;-81
2022/11/08 10:08:47;;;;;;;3.25;1.80;;;;;;;13.05;77.52;100501.69;5053494;28;20032;-82
2022/11/08 10:11:44;;;;;;;1.88;1.63;;;;;;;13.17;77.57;100500.47;5053505;28;20017;-82
2022/11/08 10:14:28;;;;;;;4.28;2.10;;;;;;;13.31;75.03;100493.06;5052949;28;20385;-82
2022/11/08 10:17:05;;;;;;;2.85;2.00;;;;;;;13.30;75.65;100501.75;5049623;28;20017;-84
2022/11/08 10:19:49;;;;;;;2.90;2.10;;;;;;;13.36;74.13;100495.50;5053052;28;20051;-82
2022/11/08 10:22:26;;;;;;;2.25;1.83;;;;;;;13.41;76.42;100510.13;5052194;28;20029;-83
2022/11/08 10:25:16;;;;;;;2.35;1.90;;;;;;;13.46;75.41;100511.75;5053800;28;20117;-83
2022/11/08 10:27:42;;;;;;;2.85;1.80;;;;;;;13.50;75.56;100514.19;5053661;28;20029;-82
2022/11/08 10:30:23;;;;;;;4.70;2.10;;;;;;;13.53;75.14;100519.31;5052450;28;20103;-83
2022/11/08 10:32:52;;;;;;;2.65;1.80;;;;;;;13.55;74.52;100514.03;5061972;28;20477;-83
2022/11/08 10:35:44;;;;;;;2.60;1.63;;;;;;;13.55;75.34;100519.25;5052356;28;20029;-83
2022/11/08 10:38:24;;;;;;;2.63;1.80;;;;;;;13.54;73.82;100520.16;5055759;28;20039;-83
2022/11/08 10:41:14;;;;;;;2.28;1.85;;;;;;;13.52;74.53;100521.94;5072710;28;20036;-83
2022/11/08 10:44:03;;;;;;;3.83;1.92;;;;;;;13.51;74.11;100521.13;5032496;28;20022;-83
2022/11/08 10:46:44;;;;;;;3.90;1.80;;;;;;;13.49;74.77;100520.31;5033190;28;20022;-83
2022/11/08 10:49:24;;;;;;;4.13;1.90;;;;;;;13.49;73.39;100527.28;5032075;28;20040;-83
2022/11/08 10:51:53;;;;;;;2.70;2.00;;;;;;;13.50;73.44;100518.56;5045256;28;20139;-85
2022/11/08 10:54:41;;;;;;;3.92;2.00;;;;;;;13.50;73.46;100524.63;5052452;28;20473;-83
2022/11/08 10:57:08;;;;;;;5.00;1.98;;;;;;;13.52;71.97;100519.34;5051232;28;20107;-83
2022/11/08 10:59:33;;;;;;;2.13;1.80;;;;;;;13.56;73.79;100513.13;5052796;28;20028;-82
2022/11/08 11:01:59;;;;;;;2.73;2.00;;;;;;;13.62;74.09;100505.13;5052089;28;20029;-83
2022/11/08 11:04:27;;;;;;;3.40;1.70;;;;;;;13.70;73.67;100504.84;5051211;28;20425;-83
2022/11/08 11:06:53;;;;;;;2.95;1.92;;;;;;;13.74;74.05;100501.25;5052893;28;20029;-83
2022/11/08 11:09:21;;;;;;;2.37;1.80;;;;;;;13.77;73.75;100501.16;5053755;28;20062;-83
2022/11/08 11:11:55;;;;;;;3.63;2.10;;;;;;;13.84;73.24;100499.19;5052165;28;20036;-83
2022/11/08 11:14:21;;;;;;;3.42;1.90;;;;;;;13.80;74.03;100484.53;5052547;28;20570;-83
2022/11/08 11:16:55;;;;;;;2.10;1.60;;;;;;;13.79;74.54;100490.66;5052873;28;20109;-83
2022/11/08 11:19:21;;;;;;;2.15;1.90;;;;;;;13.79;73.21;100461.97;5052013;28;20017;-83
2022/11/08 11:22:05;;;;;;;2.90;1.85;;;;;;;13.80;73.11;100463.66;5052682;28;20056;-83
2022/11/08 11:24:33;;;;;;;4.93;1.88;;;;;;;13.77;71.81;100482.88;5051634;28;20481;-82
2022/11/08 11:27:01;;;;;;;2.75;1.92;;;;;;;13.78;72.59;100481.13;5052658;28;20021;-83
2022/11/08 11:29:34;;;;;;;2.40;2.00;;;;;;;13.79;72.88;100470.63;5052595;28;20024;-83
2022/11/08 11:32:20;;;;;;;4.30;2.00;;;;;;;13.82;72.55;100452.25;5063629;28;20042;-82
2022/11/08 11:34:53;;;;;;;3.50;2.20;;;;;;;13.88;72.79;100443.38;5054166;28;20057;-83
2022/11/08 11:37:31;;;;;;;4.40;1.85;;;;;;;13.92;72.79;100441.50;5052350;28;20025;-83
2022/11/08 11:40:06;;;;;;;2.35;1.90;;;;;;;14.01;70.83;100455.09;5052264;28;20044;-83
2022/11/08 11:42:44;;;;;;;3.55;2.03;;;;;;;14.09;71.68;100467.84;5052672;28;20437;-84
2022/11/08 11:45:17;;;;;;;2.10;1.77;;;;;;;14.16;71.83;100465.88;5052207;28;20128;-83
2022/11/08 11:47:52;;;;;;;3.08;2.00;;;;;;;14.20;70.56;100447.44;5052715;28;20422;-83
2022/11/08 11:50:26;;;;;;;4.72;2.10;;;;;;;14.24;72.00;100456.00;5052264;28;20029;-83
2022/11/08 11:52:54;;;;;;;3.78;1.90;;;;;;;14.25;70.39;100444.66;5051500;28;20387;-83